Alexandria, Pennsylvania
Current Conditions -  °F | °C
As of 4:53 AM on Thursday 27 Nov 2014 (Local Time) from KAOO Reporting Station
Haze Haze  
Wind Chill: 31°   Ceiling: 900
Heat Index: 31°   Visibility: 5mi
Dew Point: 30°   Wind: 0mph
Humidity: 96%   Direction: NA
Pressure: 29.96"   Gusts: NA
Location:  40.56°N, 78.1°W
Report Text: KAOO 270953Z AUTO 00000KT 5SM BR OVC009 M01/M01 A2996 RMK AO2 SLP159 T10061011
Loading
Personal Weather Stations






























Interactive Weather Map New forecast layout! Learn more

10-Day Weather Forecast

Advertisements
Track Severe Weather on mobile